Time;durP1;ratioP1;P1;durP2;ratioP2;P2;SDS_P1;SDS_P2;PMS_P1;PMS_P2;Temp;Humidity;BMP_temperature;BMP_pressure;BME280_temperature;BME280_humidity;BME280_pressure;Samples;Min_cycle;Max_cycle;Signal;HPM_P1;HPM_P2
2023/05/04 00:01:10;;;;;;;9.27;7.32;;;;;;;8.19;100.00;102329.34;4972293;28;20311;-42
2023/05/04 00:03:38;;;;;;;15.68;7.90;;;;;;;8.04;100.00;102303.09;4973652;28;20041;-43
2023/05/04 00:06:03;;;;;;;11.02;7.90;;;;;;;7.80;100.00;102267.22;4976319;28;20502;-42
2023/05/04 00:08:30;;;;;;;11.55;8.70;;;;;;;7.73;100.00;102255.00;4992979;28;20038;-43
2023/05/04 00:10:55;;;;;;;9.40;7.43;;;;;;;7.57;100.00;102224.38;4992927;28;20030;-46
2023/05/04 00:13:21;;;;;;;10.02;8.85;;;;;;;8.06;100.00;102307.47;4992769;28;20401;-45
2023/05/04 00:15:46;;;;;;;11.32;8.77;;;;;;;8.01;100.00;102303.97;4993013;28;20038;-47
2023/05/04 00:18:12;;;;;;;9.60;8.20;;;;;;;7.99;100.00;102310.09;4992912;28;20046;-45
2023/05/04 00:20:37;;;;;;;11.70;8.57;;;;;;;7.97;100.00;102301.38;4992957;28;20116;-47
2023/05/04 00:23:02;;;;;;;12.07;8.68;;;;;;;7.59;100.00;102238.41;4991770;28;20042;-45
2023/05/04 00:25:28;;;;;;;12.30;8.85;;;;;;;7.86;100.00;102282.97;4975453;28;20402;-44
2023/05/04 00:27:53;;;;;;;10.93;8.68;;;;;;;7.89;100.00;102310.09;4975327;28;20121;-43
2023/05/04 00:30:19;;;;;;;9.95;8.95;;;;;;;7.89;100.00;102302.22;4992982;28;20042;-42
2023/05/04 00:32:45;;;;;;;15.38;9.57;;;;;;;7.84;100.00;102293.47;4992683;28;20047;-42
2023/05/04 00:35:11;;;;;;;11.70;9.65;;;;;;;7.84;100.00;102301.34;4992624;28;20109;-46
2023/05/04 00:37:36;;;;;;;10.10;9.20;;;;;;;7.53;100.00;102247.09;4992755;28;20474;-45
2023/05/04 00:40:02;;;;;;;12.60;9.20;;;;;;;7.80;100.00;102298.69;4958291;28;20073;-43
2023/05/04 00:42:27;;;;;;;11.38;9.52;;;;;;;7.75;100.00;102296.06;4992942;28;20482;-43
2023/05/04 00:44:52;;;;;;;12.57;9.73;;;;;;;7.72;100.00;102290.81;4992216;28;20561;-43
2023/05/04 00:47:20;;;;;;;10.35;8.77;;;;;;;7.71;100.00;102293.44;4992661;28;20405;-43
2023/05/04 00:49:45;;;;;;;11.60;10.35;;;;;;;7.71;100.00;102288.19;4992548;28;20589;-42
2023/05/04 00:52:13;;;;;;;11.07;9.93;;;;;;;7.66;100.00;102284.69;4992561;28;20042;-42
2023/05/04 00:54:39;;;;;;;11.07;10.10;;;;;;;7.57;100.00;102268.94;4992466;28;20475;-44
2023/05/04 00:57:05;;;;;;;10.65;9.65;;;;;;;7.60;100.00;102279.44;4975079;28;20440;-43
2023/05/04 00:59:30;;;;;;;10.25;9.20;;;;;;;7.59;100.00;102282.94;4991137;28;20034;-46
2023/05/04 01:01:56;;;;;;;13.60;9.55;;;;;;;7.20;100.00;102211.22;4994653;28;20092;-45
2023/05/04 01:04:21;;;;;;;11.30;9.93;;;;;;;7.55;100.00;102265.44;4978675;28;20040;-42
2023/05/04 01:07:22;;;;;;;11.18;9.68;;;;;;;7.49;100.00;102268.03;4978772;28;20485;-45
2023/05/04 01:10:14;;;;;;;11.85;10.70;;;;;;;7.47;100.00;102265.44;4959977;28;20124;-46
2023/05/04 01:12:44;;;;;;;11.07;9.80;;;;;;;6.93;100.00;102174.47;4975782;28;20417;-44
2023/05/04 01:15:11;;;;;;;11.55;10.27;;;;;;;7.40;100.00;102255.78;4995658;28;20043;-46
2023/05/04 01:17:37;;;;;;;13.20;10.68;;;;;;;7.05;100.00;102190.22;4996056;28;20037;-43
2023/05/04 01:20:02;;;;;;;12.70;10.73;;;;;;;7.32;100.00;102234.84;4995903;28;20038;-43
2023/05/04 01:22:28;;;;;;;13.68;10.60;;;;;;;7.42;100.00;102254.03;4978669;28;20034;-44
2023/05/04 01:24:53;;;;;;;12.60;10.65;;;;;;;7.40;100.00;102254.91;4978522;28;20363;-43
2023/05/04 01:27:25;;;;;;;13.13;10.35;;;;;;;7.39;100.00;102251.41;4995977;28;20121;-45
2023/05/04 01:30:02;;;;;;;11.77;10.63;;;;;;;7.38;100.00;102240.94;4996019;28;20033;-44
2023/05/04 01:32:28;;;;;;;15.00;11.35;;;;;;;6.99;100.00;102177.09;4994914;28;20045;-45
2023/05/04 01:34:54;;;;;;;11.75;10.52;;;;;;;7.32;100.00;102239.19;4994649;28;20402;-41
2023/05/04 01:37:20;;;;;;;13.95;11.60;;;;;;;7.06;100.00;102176.25;4995720;28;20030;-42
2023/05/04 01:39:45;;;;;;;11.55;10.35;;;;;;;7.33;100.00;102230.44;4995691;28;20122;-42
2023/05/04 01:42:10;;;;;;;13.68;10.98;;;;;;;7.33;100.00;102239.19;4995627;28;20038;-43
2023/05/04 01:44:36;;;;;;;12.27;10.13;;;;;;;7.31;100.00;102224.34;4994747;28;20046;-42
2023/05/04 01:47:01;;;;;;;11.50;10.40;;;;;;;7.33;100.00;102225.19;4994628;28;20113;-43
2023/05/04 01:49:26;;;;;;;14.85;10.82;;;;;;;7.31;100.00;102238.31;4995766;28;20045;-48
2023/05/04 01:51:52;;;;;;;13.90;10.65;;;;;;;7.30;100.00;102231.31;4995641;28;20071;-43
2023/05/04 01:54:17;;;;;;;16.50;11.10;;;;;;;7.19;100.00;102214.69;4995466;28;20084;-43
2023/05/04 01:56:42;;;;;;;15.25;11.27;;;;;;;6.86;100.00;102163.97;4995303;28;20053;-41
2023/05/04 01:59:08;;;;;;;17.13;11.13;;;;;;;7.20;100.00;102223.44;4977887;28;20034;-47
2023/05/04 02:01:33;;;;;;;11.82;10.63;;;;;;;6.90;100.00;102177.06;4995030;28;20038;-44
2023/05/04 02:03:59;;;;;;;12.95;10.98;;;;;;;6.90;100.00;102178.81;4995168;28;20034;-44
2023/05/04 02:06:24;;;;;;;16.23;11.70;;;;;;;6.84;100.00;102169.19;4994385;28;20104;-43
2023/05/04 02:08:50;;;;;;;13.55;12.15;;;;;;;7.13;100.00;102219.91;4995212;28;20034;-42
2023/05/04 02:11:15;;;;;;;11.70;10.57;;;;;;;7.11;100.00;102215.53;4977747;28;20030;-44
2023/05/04 02:13:41;;;;;;;14.25;11.00;;;;;;;6.70;100.00;102145.59;4994287;28;20034;-47
2023/05/04 02:16:06;;;;;;;14.18;11.02;;;;;;;6.99;100.00;102202.41;4995013;28;20038;-43
2023/05/04 02:18:32;;;;;;;15.10;11.27;;;;;;;7.05;100.00;102213.78;4977814;28;20030;-43
2023/05/04 02:20:57;;;;;;;14.48;10.88;;;;;;;6.97;100.00;102194.56;4994352;28;20038;-44
2023/05/04 02:23:22;;;;;;;16.38;11.30;;;;;;;7.04;100.00;102214.63;4994702;28;20402;-44
2023/05/04 02:25:48;;;;;;;12.48;11.13;;;;;;;7.03;100.00;102212.03;4977624;28;20496;-47
2023/05/04 02:28:13;;;;;;;14.95;10.65;;;;;;;7.01;100.00;102209.38;4994878;28;20031;-44
2023/05/04 02:30:40;;;;;;;13.65;11.02;;;;;;;6.91;100.00;102194.53;4994536;28;20093;-44
2023/05/04 02:33:06;;;;;;;11.90;10.63;;;;;;;6.60;100.00;102137.66;4994713;28;20066;-45
2023/05/04 02:35:31;;;;;;;14.52;10.65;;;;;;;6.96;100.00;102197.16;4977213;28;20073;-42
2023/05/04 02:37:56;;;;;;;11.95;10.65;;;;;;;6.96;100.00;102199.75;4976267;28;20073;-42
2023/05/04 02:40:21;;;;;;;12.82;11.43;;;;;;;6.89;100.00;102185.78;4994633;28;20042;-48
2023/05/04 02:42:47;;;;;;;11.90;10.80;;;;;;;6.92;100.00;102198.88;4994425;28;20397;-42
2023/05/04 02:45:12;;;;;;;12.10;10.35;;;;;;;6.90;100.00;102200.63;4976889;28;20423;-44
2023/05/04 02:47:38;;;;;;;11.98;10.88;;;;;;;6.87;100.00;102186.63;4994109;28;20393;-42
2023/05/04 02:50:03;;;;;;;12.13;10.70;;;;;;;6.58;100.00;102140.28;4994853;28;20035;-42
2023/05/04 02:52:29;;;;;;;12.40;11.10;;;;;;;6.84;100.00;102184.88;4994316;28;20068;-42
2023/05/04 02:54:55;;;;;;;13.23;11.00;;;;;;;5.72;100.00;102016.91;4994269;28;20053;-46
2023/05/04 02:57:20;;;;;;;12.07;10.88;;;;;;;6.78;100.00;102183.13;4975940;28;20494;-46
2023/05/04 02:59:46;;;;;;;12.18;10.77;;;;;;;6.61;100.00;102166.47;4994067;28;20123;-43
2023/05/04 03:02:11;;;;;;;12.68;11.05;;;;;;;6.74;100.00;102188.34;4994086;28;20034;-42
2023/05/04 03:04:36;;;;;;;11.73;10.27;;;;;;;6.72;100.00;102179.59;4993694;28;20086;-42
2023/05/04 03:07:02;;;;;;;13.27;10.98;;;;;;;6.36;100.00;102122.75;4994051;28;20038;-42
2023/05/04 03:09:27;;;;;;;13.73;11.38;;;;;;;6.65;100.00;102176.09;4994081;28;20058;-42
2023/05/04 03:11:52;;;;;;;13.77;10.32;;;;;;;6.33;100.00;102127.09;4960447;28;20030;-43
2023/05/04 03:14:18;;;;;;;13.55;10.70;;;;;;;6.64;100.00;102171.72;4992754;28;20482;-42
2023/05/04 03:16:43;;;;;;;13.30;11.18;;;;;;;6.27;100.00;102112.25;4993736;28;20050;-42
2023/05/04 03:19:08;;;;;;;11.63;10.35;;;;;;;6.62;100.00;102188.28;4960494;28;20489;-42
2023/05/04 03:21:34;;;;;;;14.73;10.93;;;;;;;6.32;100.00;102122.72;4993697;28;20031;-42
2023/05/04 03:23:59;;;;;;;13.45;11.52;;;;;;;6.56;100.00;102169.94;4976296;28;20490;-41
2023/05/04 03:26:24;;;;;;;11.45;10.35;;;;;;;6.53;100.00;102170.78;4993901;28;20038;-44
2023/05/04 03:28:50;;;;;;;16.00;11.13;;;;;;;6.49;100.00;102168.13;4993781;28;20034;-43
2023/05/04 03:31:15;;;;;;;13.85;10.13;;;;;;;6.46;100.00;102162.91;4992658;28;20390;-46
2023/05/04 03:33:41;;;;;;;12.75;11.20;;;;;;;6.46;100.00;102170.75;4993810;28;20038;-44
2023/05/04 03:36:08;;;;;;;11.73;10.38;;;;;;;6.09;100.00;102105.19;4993684;28;20035;-42
2023/05/04 03:38:33;;;;;;;13.43;10.73;;;;;;;6.43;100.00;102171.59;4993206;28;20088;-41
2023/05/04 03:40:58;;;;;;;12.57;11.00;;;;;;;6.07;100.00;102112.09;4975956;28;20121;-42
2023/05/04 03:43:24;;;;;;;13.48;10.40;;;;;;;6.40;100.00;102179.44;4993526;28;20034;-42
2023/05/04 03:45:49;;;;;;;13.93;11.30;;;;;;;6.25;100.00;102161.03;4976150;28;20050;-42
2023/05/04 03:48:14;;;;;;;15.35;12.63;;;;;;;6.34;100.00;102166.31;4975316;28;20170;-44
2023/05/04 03:50:40;;;;;;;12.30;11.02;;;;;;;5.87;100.00;102090.19;4993034;28;20038;-41
2023/05/04 03:53:05;;;;;;;17.92;11.27;;;;;;;5.93;100.00;102095.47;4993155;28;20030;-41
2023/05/04 03:55:31;;;;;;;13.07;10.85;;;;;;;6.32;100.00;102149.75;4993095;28;20037;-45
2023/05/04 03:57:56;;;;;;;13.45;11.27;;;;;;;6.32;100.00;102141.03;4975414;28;20041;-42
2023/05/04 04:00:22;;;;;;;12.35;10.07;;;;;;;6.27;100.00;102143.63;4975620;28;20195;-45
2023/05/04 04:02:47;;;;;;;13.90;11.20;;;;;;;5.91;100.00;102073.69;4993074;28;20038;-46
2023/05/04 04:05:13;;;;;;;15.82;10.35;;;;;;;6.14;100.00;102137.44;4974418;28;20050;-46
2023/05/04 04:07:38;;;;;;;12.32;10.52;;;;;;;6.25;100.00;102140.09;4975590;28;20118;-45
2023/05/04 04:10:04;;;;;;;14.98;10.88;;;;;;;6.25;100.00;102140.09;4975710;28;20034;-42
2023/05/04 04:12:29;;;;;;;16.45;10.68;;;;;;;6.27;100.00;102137.50;4993054;28;20045;-47
2023/05/04 04:14:55;;;;;;;14.63;10.88;;;;;;;6.27;100.00;102135.78;4992836;28;20180;-42
2023/05/04 04:17:20;;;;;;;12.30;10.50;;;;;;;6.28;100.00;102136.63;4992803;28;20041;-44
2023/05/04 04:19:45;;;;;;;13.02;10.02;;;;;;;5.88;100.00;102078.03;4992162;28;20118;-45
2023/05/04 04:22:11;;;;;;;11.70;9.90;;;;;;;6.14;100.00;102111.28;4992839;28;20069;-45
2023/05/04 04:24:36;;;;;;;10.65;9.25;;;;;;;5.92;100.00;102066.72;4975381;28;20042;-44
2023/05/04 04:27:01;;;;;;;9.77;8.77;;;;;;;5.84;100.00;102052.72;4975191;28;20043;-43
2023/05/04 04:29:30;;;;;;;12.50;10.43;;;;;;;6.25;100.00;102120.97;4992561;28;20080;-43
2023/05/04 04:31:55;;;;;;;14.13;10.40;;;;;;;6.01;100.00;102074.63;4992762;28;20058;-45
2023/05/04 04:34:21;;;;;;;12.70;9.68;;;;;;;5.98;100.00;102066.78;4992738;28;20070;-44
2023/05/04 04:36:46;;;;;;;14.68;9.90;;;;;;;6.12;100.00;102094.75;4975957;28;20039;-49
2023/05/04 04:39:11;;;;;;;11.02;9.73;;;;;;;6.00;100.00;102063.28;4996812;28;20033;-43
2023/05/04 04:41:37;;;;;;;11.98;10.77;;;;;;;6.35;100.00;102121.00;4996641;28;20031;-45
2023/05/04 04:44:03;;;;;;;14.52;9.82;;;;;;;6.30;100.00;102107.03;4996690;28;20073;-41
2023/05/04 04:46:29;;;;;;;11.30;10.07;;;;;;;6.38;100.00;102126.25;4996042;28;20513;-44
2023/05/04 04:48:54;;;;;;;13.10;11.18;;;;;;;6.32;100.00;102110.53;4996765;28;20042;-45
2023/05/04 04:51:20;;;;;;;12.73;10.05;;;;;;;6.40;100.00;102113.16;4996295;28;20030;-44
2023/05/04 04:53:45;;;;;;;12.70;9.27;;;;;;;6.46;100.00;102123.66;4996581;28;20034;-47
2023/05/04 04:56:10;;;;;;;11.88;10.05;;;;;;;6.41;100.00;102104.47;4995353;28;20045;-48
2023/05/04 04:58:36;;;;;;;11.50;9.93;;;;;;;6.49;100.00;102129.78;4978867;28;20168;-45
2023/05/04 05:01:04;;;;;;;12.38;9.60;;;;;;;6.57;100.00;102127.19;4996240;28;20062;-42
2023/05/04 05:03:30;;;;;;;11.15;9.10;;;;;;;6.59;100.00;102136.81;4995500;28;20119;-44
2023/05/04 05:05:55;;;;;;;12.50;8.75;;;;;;;6.64;100.00;102124.63;4978751;28;20135;-43
2023/05/04 05:08:21;;;;;;;12.88;9.30;;;;;;;6.39;100.00;102069.59;4996201;28;20030;-45
2023/05/04 05:10:46;;;;;;;10.75;9.02;;;;;;;6.75;100.00;102111.56;4978827;28;20451;-44
2023/05/04 05:13:11;;;;;;;12.43;9.48;;;;;;;6.75;100.00;102111.56;4996158;28;20050;-42
2023/05/04 05:15:37;;;;;;;14.20;9.45;;;;;;;6.86;100.00;102124.72;4978806;28;20042;-42
2023/05/04 05:18:02;;;;;;;14.98;9.25;;;;;;;6.91;100.00;102125.59;4995001;28;20048;-46
2023/05/04 05:20:28;;;;;;;13.70;9.75;;;;;;;6.87;100.00;102113.34;4995806;28;20089;-41
2023/05/04 05:22:54;;;;;;;11.00;9.40;;;;;;;6.55;100.00;102046.09;4995962;28;20093;-44
2023/05/04 05:25:19;;;;;;;11.30;9.63;;;;;;;7.00;100.00;102110.78;4995837;28;20045;-48
2023/05/04 05:27:44;;;;;;;11.77;9.63;;;;;;;7.04;100.00;102119.50;4978140;28;20121;-44
2023/05/04 05:30:10;;;;;;;11.40;8.70;;;;;;;7.09;100.00;102116.03;4996155;28;20042;-48
2023/05/04 05:32:36;;;;;;;10.45;9.02;;;;;;;7.13;100.00;102115.16;4978503;28;20141;-45
2023/05/04 05:35:03;;;;;;;13.45;9.95;;;;;;;7.03;100.00;102094.22;4994596;28;20042;-43
2023/05/04 05:37:29;;;;;;;11.88;9.50;;;;;;;7.31;100.00;102122.19;4995555;28;20401;-49
2023/05/04 05:39:54;;;;;;;11.07;8.80;;;;;;;7.33;100.00;102130.91;4995765;28;20041;-44
2023/05/04 05:42:20;;;;;;;11.15;9.48;;;;;;;7.41;100.00;102120.47;4995580;28;20046;-47
2023/05/04 05:44:45;;;;;;;11.55;9.13;;;;;;;7.30;100.00;102096.84;4978030;28;20041;-45
2023/05/04 05:47:10;;;;;;;12.90;9.00;;;;;;;7.04;100.00;102054.94;4977893;28;20035;-46
2023/05/04 05:49:36;;;;;;;13.30;9.90;;;;;;;7.46;100.00;102132.69;4995535;28;20038;-43
2023/05/04 05:52:01;;;;;;;10.98;9.23;;;;;;;7.56;100.00;102125.72;4995218;28;20042;-42
2023/05/04 05:54:29;;;;;;;10.57;9.43;;;;;;;7.50;100.00;102110.00;4994033;28;20494;-46
2023/05/04 05:56:54;;;;;;;10.85;8.85;;;;;;;7.35;100.00;102071.56;4977989;28;20027;-44
2023/05/04 05:59:20;;;;;;;11.60;9.13;;;;;;;7.76;100.00;102119.56;4977893;28;20038;-45
2023/05/04 06:01:45;;;;;;;13.85;9.07;;;;;;;7.76;100.00;102111.72;4994908;28;20035;-43
2023/05/04 06:04:10;;;;;;;13.02;8.93;;;;;;;7.87;100.00;102116.97;4995092;28;20104;-48
2023/05/04 06:06:36;;;;;;;12.32;8.95;;;;;;;7.87;100.00;102109.09;4994824;28;20038;-44
2023/05/04 06:09:01;;;;;;;12.45;8.52;;;;;;;7.74;100.00;102057.53;4994033;28;20397;-44
2023/05/04 06:11:27;;;;;;;11.38;9.30;;;;;;;8.08;100.00;102105.56;4994824;28;20065;-43
2023/05/04 06:13:52;;;;;;;11.00;8.63;;;;;;;8.25;100.00;102111.63;4995006;28;20038;-44
2023/05/04 06:16:17;;;;;;;12.02;8.75;;;;;;;8.25;100.00;102107.28;4995043;28;20030;-43
2023/05/04 06:18:43;;;;;;;9.90;8.82;;;;;;;8.22;100.00;102099.41;4995124;28;20105;-44
2023/05/04 06:21:08;;;;;;;10.15;8.55;;;;;;;8.37;100.00;102112.53;4994949;28;20105;-41
2023/05/04 06:23:34;;;;;;;9.68;8.65;;;;;;;8.37;100.00;102091.53;4994826;28;20125;-42
2023/05/04 06:25:59;;;;;;;12.00;9.18;;;;;;;8.06;100.00;102005.03;4977404;28;20034;-42
2023/05/04 06:28:25;;;;;;;12.70;9.20;;;;;;;8.54;100.00;102048.59;4993906;28;20041;-44
2023/05/04 06:30:50;;;;;;;11.80;8.75;;;;;;;8.97;100.00;102106.13;4977314;28;20034;-44
2023/05/04 06:33:16;;;;;;;11.15;8.93;;;;;;;8.77;100.00;102044.97;4994947;28;20061;-45
2023/05/04 06:35:41;;;;;;;9.43;8.30;;;;;;;9.36;100.00;102099.75;4977000;28;20042;-45
2023/05/04 06:38:06;;;;;;;11.10;9.07;;;;;;;9.63;100.00;102103.03;4977355;28;20177;-42
2023/05/04 06:40:35;;;;;;;10.73;8.48;;;;;;;9.57;100.00;102086.41;4994686;28;20075;-43
2023/05/04 06:43:00;;;;;;;11.70;8.45;;;;;;;9.83;100.00;102101.97;4994504;28;20035;-42
2023/05/04 06:45:25;;;;;;;8.45;7.65;;;;;;;9.46;100.00;102017.28;4993799;28;20047;-42
2023/05/04 06:47:51;;;;;;;10.90;8.27;;;;;;;10.12;100.00;102093.78;4977071;28;20393;-42
2023/05/04 06:50:17;;;;;;;8.77;7.72;;;;;;;10.13;100.00;102098.16;4994273;28;20046;-42
2023/05/04 06:52:43;;;;;;;8.93;7.90;;;;;;;10.27;100.00;102092.78;4994318;28;20038;-43
2023/05/04 06:55:09;;;;;;;10.02;7.90;;;;;;;9.98;100.00;102008.91;4993932;28;20057;-42
2023/05/04 06:57:34;;;;;;;10.57;8.27;;;;;;;10.47;100.00;102106.59;4976550;28;20490;-41
2023/05/04 07:00:00;;;;;;;11.05;8.05;;;;;;;10.55;100.00;102081.91;4992912;28;20034;-44
2023/05/04 07:02:25;;;;;;;11.73;8.10;;;;;;;10.77;100.00;102082.47;4994254;28;20068;-44
2023/05/04 07:04:51;;;;;;;8.27;7.47;;;;;;;10.89;100.00;102091.97;4994223;28;20501;-43
2023/05/04 07:07:17;;;;;;;10.02;7.88;;;;;;;10.91;100.00;102082.31;4991780;28;20034;-46
2023/05/04 07:09:42;;;;;;;8.85;7.68;;;;;;;11.01;100.00;102084.78;4992239;28;20544;-44
2023/05/04 07:12:08;;;;;;;11.57;7.50;;;;;;;11.05;100.00;102086.50;4992004;28;20061;-44
2023/05/04 07:14:33;;;;;;;8.82;7.70;;;;;;;10.99;100.00;102076.03;4989312;28;20078;-43
2023/05/04 07:16:59;;;;;;;7.85;7.05;;;;;;;11.16;100.00;102066.13;4989268;28;20099;-42
2023/05/04 07:19:25;;;;;;;9.93;7.93;;;;;;;11.43;100.00;102066.56;4973581;28;20077;-43
2023/05/04 07:21:51;;;;;;;10.32;7.80;;;;;;;11.53;100.00;102071.66;4989338;28;20078;-42
2023/05/04 07:24:16;;;;;;;8.20;7.40;;;;;;;11.96;100.00;102074.47;4993766;28;20030;-45
2023/05/04 07:26:41;;;;;;;9.30;7.88;;;;;;;12.13;100.00;102069.72;4993109;28;20034;-43
2023/05/04 07:29:08;;;;;;;12.18;7.53;;;;;;;12.28;100.00;102058.88;4990106;28;20521;-42
2023/05/04 07:31:33;;;;;;;8.60;7.78;;;;;;;12.03;100.00;102006.59;4992451;28;20049;-42
2023/05/04 07:33:59;;;;;;;8.23;7.43;;;;;;;12.35;100.00;102063.13;4975112;28;20030;-43
2023/05/04 07:36:26;;;;;;;10.38;8.27;;;;;;;12.26;100.00;102014.91;4975907;28;20037;-43
2023/05/04 07:38:54;;;;;;;13.85;8.13;;;;;;;12.58;100.00;102070.56;4975996;28;20482;-43
2023/05/04 07:41:20;;;;;;;7.93;7.15;;;;;;;12.46;100.00;101993.38;4976311;28;20038;-43
2023/05/04 07:43:45;;;;;;;9.18;6.72;;;;;;;13.15;100.00;102059.63;4975087;28;20030;-42
2023/05/04 07:46:11;;;;;;;11.25;7.07;;;;;;;13.28;100.00;102061.09;4993263;28;20034;-42
2023/05/04 07:48:37;;;;;;;12.85;7.80;;;;;;;13.04;100.00;102004.34;4975217;28;20457;-43
2023/05/04 07:51:02;;;;;;;9.80;7.10;;;;;;;13.52;100.00;102037.53;4975194;28;20038;-43
2023/05/04 07:53:28;;;;;;;11.45;7.75;;;;;;;13.44;100.00;101991.03;4975789;28;20093;-43
2023/05/04 07:55:53;;;;;;;9.15;7.60;;;;;;;13.65;100.00;102024.88;4991698;28;20535;-44
2023/05/04 07:58:19;;;;;;;12.50;7.35;;;;;;;13.98;100.00;102041.63;4975741;28;20255;-45
2023/05/04 08:00:44;;;;;;;8.27;7.38;;;;;;;13.89;100.00;102039.22;4991936;28;20034;-46
2023/05/04 08:03:10;;;;;;;8.50;7.25;;;;;;;13.65;100.00;101971.94;4993103;28;20382;-45
2023/05/04 08:05:35;;;;;;;10.10;6.82;;;;;;;14.32;100.00;102028.28;4992969;28;20094;-45
2023/05/04 08:08:01;;;;;;;8.45;7.60;;;;;;;14.26;100.00;102037.28;4975421;28;20405;-43
2023/05/04 08:10:27;;;;;;;10.00;7.68;;;;;;;14.59;100.00;102024.88;4974630;28;20038;-44
2023/05/04 08:12:53;;;;;;;8.75;7.20;;;;;;;14.94;100.00;102026.44;4975026;28;20136;-43
2023/05/04 08:15:18;;;;;;;9.60;7.40;;;;;;;15.19;100.00;102032.69;4993014;28;20514;-43
2023/05/04 08:17:44;;;;;;;9.82;7.00;;;;;;;15.30;100.00;102034.97;4991148;28;20038;-42
2023/05/04 08:20:10;;;;;;;9.15;7.35;;;;;;;15.22;100.00;102008.69;4990888;28;20061;-41
2023/05/04 08:22:36;;;;;;;10.18;7.45;;;;;;;15.66;100.00;102028.47;4973741;28;20037;-42
2023/05/04 08:25:01;;;;;;;9.68;6.60;;;;;;;16.43;100.00;102028.31;4974717;28;20050;-44
2023/05/04 08:27:27;;;;;;;7.63;6.78;;;;;;;17.03;100.00;102038.38;4992738;28;20041;-44
2023/05/04 08:29:52;;;;;;;8.88;6.65;;;;;;;17.54;100.00;102027.38;4992808;28;20031;-47
2023/05/04 08:32:18;;;;;;;13.60;6.35;;;;;;;17.11;100.00;102030.06;4975286;28;20072;-42
2023/05/04 08:34:43;;;;;;;9.15;6.90;;;;;;;17.40;100.00;101996.00;4992547;28;20042;-44
2023/05/04 08:37:09;;;;;;;7.20;6.53;;;;;;;17.95;100.00;102034.47;4959041;28;20050;-44
2023/05/04 08:39:34;;;;;;;10.45;6.75;;;;;;;17.55;100.00;101964.38;4992395;28;20557;-46
2023/05/04 08:42:01;;;;;;;7.43;6.80;;;;;;;18.17;100.00;102025.50;4974488;28;20038;-47
2023/05/04 08:44:28;;;;;;;9.43;6.22;;;;;;;18.89;100.00;102022.13;4975252;28;20515;-46
2023/05/04 08:46:54;;;;;;;7.82;6.30;;;;;;;19.15;100.00;102020.84;4992754;28;20045;-44
2023/05/04 08:49:20;;;;;;;8.35;6.03;;;;;;;19.14;100.00;102008.44;4992702;28;20034;-43
2023/05/04 08:51:48;;;;;;;9.02;6.40;;;;;;;18.96;100.00;101956.84;4991388;28;20437;-50
2023/05/04 08:54:15;;;;;;;9.65;5.97;;;;;;;19.43;100.00;102005.22;4992419;28;20030;-48
2023/05/04 08:56:41;;;;;;;9.00;6.68;;;;;;;18.96;100.00;102001.34;4991703;28;20056;-45
2023/05/04 08:59:08;;;;;;;7.30;6.05;;;;;;;19.36;100.00;102003.75;4970614;28;20034;-45
2023/05/04 09:01:36;;;;;;;8.60;6.15;;;;;;;19.78;100.00;101989.19;4955623;28;20129;-45
2023/05/04 09:04:02;;;;;;;6.35;5.57;;;;;;;19.86;100.00;101946.88;4972925;28;21467;-45
2023/05/04 09:06:28;;;;;;;10.40;6.53;;;;;;;20.25;100.00;101974.19;4972888;28;20054;-44
2023/05/04 09:08:53;;;;;;;6.57;5.97;;;;;;;20.21;100.00;101972.56;4939778;28;20058;-45
2023/05/04 09:11:19;;;;;;;10.45;5.80;;;;;;;20.38;100.00;101988.59;4971752;28;20042;-44
2023/05/04 09:13:44;;;;;;;7.38;5.93;;;;;;;20.33;100.00;101929.16;4973007;28;20045;-46
2023/05/04 09:16:09;;;;;;;7.97;6.32;;;;;;;21.03;100.00;101986.69;4982391;28;20093;-46
2023/05/04 09:18:39;;;;;;;10.68;5.63;;;;;;;21.26;100.00;101920.16;4991190;28;20042;-45
2023/05/04 09:21:05;;;;;;;8.13;6.30;;;;;;;21.28;100.00;101915.56;4990695;28;20038;-44
2023/05/04 09:23:31;;;;;;;9.85;6.07;;;;;;;21.39;100.00;101928.31;4994970;28;20026;-43
2023/05/04 09:25:57;;;;;;;6.68;6.00;;;;;;;21.73;100.00;101973.53;4978652;28;20034;-46
2023/05/04 09:28:40;;;;;;;7.95;6.50;;;;;;;21.28;100.00;101902.16;4995806;28;20040;-46
2023/05/04 09:31:06;;;;;;;7.50;6.00;;;;;;;22.07;100.00;101977.72;4995849;28;20466;-46
2023/05/04 09:33:35;;;;;;;5.57;5.07;;;;;;;21.74;97.00;101963.69;4995844;28;20034;-44
2023/05/04 09:36:14;;;;;;;5.95;5.43;;;;;;;22.03;100.00;101964.59;4977261;28;20053;-45
2023/05/04 09:38:40;;;;;;;6.45;4.70;;;;;;;22.01;100.00;101953.97;4978483;28;20038;-47
2023/05/04 09:41:05;;;;;;;7.70;6.10;;;;;;;22.25;100.00;101901.47;4995848;28;20121;-43
2023/05/04 09:43:40;;;;;;;6.30;5.25;;;;;;;23.06;98.78;101913.09;4995362;28;20073;-44
2023/05/04 09:46:07;;;;;;;7.85;5.57;;;;;;;22.28;95.34;101967.47;4995592;28;20077;-48
2023/05/04 09:48:33;;;;;;;5.68;5.20;;;;;;;22.19;97.54;101925.13;4994568;28;20478;-45
2023/05/04 09:51:01;;;;;;;5.85;5.30;;;;;;;22.13;100.00;101955.88;4977543;28;20061;-49
2023/05/04 09:53:29;;;;;;;8.95;5.28;;;;;;;22.19;99.98;101927.81;4995607;28;20033;-44
2023/05/04 09:56:13;;;;;;;7.72;5.03;;;;;;;23.05;98.08;101938.25;4994678;28;20034;-47
2023/05/04 09:58:41;;;;;;;5.07;4.57;;;;;;;23.39;97.69;101926.97;4977942;28;20115;-47
2023/05/04 10:01:07;;;;;;;13.73;5.35;;;;;;;23.66;91.84;101924.19;4977963;28;20077;-45
2023/05/04 10:03:33;;;;;;;11.20;5.75;;;;;;;22.95;96.61;101861.94;4962134;28;20062;-45
2023/05/04 10:06:01;;;;;;;7.35;5.55;;;;;;;23.09;94.79;101917.44;4977634;28;20076;-50
2023/05/04 10:08:27;;;;;;;7.13;5.32;;;;;;;23.14;99.60;101853.50;4995465;28;20470;-43
2023/05/04 10:10:53;;;;;;;6.35;4.75;;;;;;;23.82;95.20;101910.50;4977776;28;20037;-43
2023/05/04 10:13:19;;;;;;;8.85;5.07;;;;;;;24.34;91.35;101908.50;4993823;28;20521;-43
2023/05/04 10:16:04;;;;;;;7.72;5.40;;;;;;;24.34;81.61;101902.28;4977359;28;20065;-44
2023/05/04 10:19:08;;;;;;;11.27;5.10;;;;;;;24.49;85.86;101899.31;4977032;28;20041;-44
2023/05/04 10:21:55;;;;;;;6.60;4.55;;;;;;;24.77;83.22;101897.28;4995546;28;20030;-43
2023/05/04 10:24:31;;;;;;;9.35;5.03;;;;;;;24.56;83.84;101894.34;4977440;28;20110;-43
2023/05/04 10:26:59;;;;;;;8.73;5.43;;;;;;;24.90;80.07;101888.16;4993673;28;20078;-44
2023/05/04 10:29:27;;;;;;;5.97;4.90;;;;;;;25.00;80.86;101883.81;4994868;28;20030;-51
2023/05/04 10:31:53;;;;;;;7.38;5.00;;;;;;;24.45;85.24;101830.56;4994421;28;20117;-46
2023/05/04 10:34:25;;;;;;;6.78;5.35;;;;;;;25.02;81.87;101884.56;4994011;28;20456;-45
2023/05/04 10:36:50;;;;;;;6.05;5.15;;;;;;;25.15;80.41;101866.47;4994455;28;21092;-43
2023/05/04 10:39:19;;;;;;;9.10;4.93;;;;;;;25.23;79.91;101856.94;4994602;28;20112;-43
2023/05/04 10:42:05;;;;;;;6.47;5.10;;;;;;;25.18;71.04;101763.00;4994718;28;20034;-44
2023/05/04 10:44:32;;;;;;;8.27;5.22;;;;;;;25.40;72.78;101800.72;4992517;28;20022;-42
2023/05/04 10:47:05;;;;;;;6.82;5.03;;;;;;;25.41;71.20;101804.28;4977175;28;20161;-44
2023/05/04 10:49:31;;;;;;;6.68;4.72;;;;;;;25.71;72.67;101853.13;4993801;28;20177;-46
2023/05/04 10:52:08;;;;;;;9.23;5.47;;;;;;;25.56;84.34;101844.41;4979234;28;20046;-45
2023/05/04 10:54:37;;;;;;;7.28;5.05;;;;;;;26.36;75.58;101825.34;4956496;28;20117;-47
2023/05/04 10:57:08;;;;;;;7.45;4.63;;;;;;;27.19;68.68;101839.81;4974381;28;20070;-45
2023/05/04 10:59:33;;;;;;;4.88;4.28;;;;;;;26.47;65.42;101769.47;4958028;28;20027;-45
2023/05/04 11:02:00;;;;;;;8.27;4.72;;;;;;;26.71;65.97;101831.31;4941680;28;20041;-45
2023/05/04 11:04:26;;;;;;;8.55;5.90;;;;;;;26.22;73.00;101810.25;4974246;28;20041;-42
2023/05/04 11:06:56;;;;;;;5.05;4.38;;;;;;;27.00;71.95;101815.38;4954852;28;20051;-41
2023/05/04 11:09:21;;;;;;;6.68;5.43;;;;;;;27.29;65.94;101825.38;4974687;28;20062;-41
2023/05/04 11:11:47;;;;;;;6.22;5.43;;;;;;;27.06;66.46;101766.19;4989376;28;20485;-40